createdAt,value
2018-08-31T00:01:40.622Z,14.10
2018-08-31T00:04:21.814Z,13.33
2018-08-31T00:07:03.218Z,12.10
2018-08-31T00:09:43.791Z,12.07
2018-08-31T00:12:24.543Z,12.13
2018-08-31T00:15:06.354Z,13.40
2018-08-31T00:17:48.638Z,11.53
2018-08-31T00:20:29.609Z,12.83
2018-08-31T00:23:11.070Z,10.77
2018-08-31T00:25:51.856Z,11.00
2018-08-31T00:28:33.645Z,12.17
2018-08-31T00:31:14.985Z,13.30
2018-08-31T00:33:57.279Z,12.30
2018-08-31T00:36:38.255Z,12.83
2018-08-31T00:39:19.782Z,13.60
2018-08-31T00:42:01.078Z,13.63
2018-08-31T00:44:42.773Z,12.07
2018-08-31T00:47:24.117Z,11.87
2018-08-31T00:50:05.673Z,11.23
2018-08-31T00:52:46.328Z,11.67
2018-08-31T00:55:27.173Z,10.80
2018-08-31T00:58:08.705Z,11.53
2018-08-31T01:00:50.366Z,11.10
2018-08-31T01:03:31.709Z,11.27
2018-08-31T01:06:13.001Z,12.20
2018-08-31T01:08:53.825Z,11.80
2018-08-31T01:11:34.594Z,12.77
2018-08-31T01:14:16.089Z,10.87
2018-08-31T01:16:57.652Z,10.47
2018-08-31T01:19:38.230Z,10.20
2018-08-31T01:22:18.937Z,10.37
2018-08-31T01:25:00.470Z,10.97
2018-08-31T01:27:42.473Z,12.07
2018-08-31T01:30:23.601Z,11.10
2018-08-31T01:33:04.218Z,10.80
2018-08-31T01:35:44.924Z,10.53
2018-08-31T01:38:26.497Z,11.47
2018-08-31T01:41:07.061Z,10.83
2018-08-31T01:43:47.728Z,12.30
2018-08-31T01:46:29.169Z,11.97
2018-08-31T01:49:10.658Z,11.33
2018-08-31T01:51:52.235Z,12.57
2018-08-31T01:54:33.679Z,11.93
2018-08-31T01:57:14.319Z,11.00
2018-08-31T01:59:55.805Z,11.53
2018-08-31T02:02:36.365Z,11.00
2018-08-31T02:05:17.828Z,12.50
2018-08-31T02:07:58.569Z,10.77
2018-08-31T02:10:40.064Z,11.17
2018-08-31T02:13:21.794Z,10.07
2018-08-31T02:16:03.135Z,10.90
2018-08-31T02:18:43.854Z,10.33
2018-08-31T02:21:25.310Z,11.40
2018-08-31T02:24:05.988Z,11.23
2018-08-31T02:26:47.137Z,10.60
2018-08-31T02:29:28.295Z,11.03
2018-08-31T02:32:08.870Z,12.70
2018-08-31T02:34:49.589Z,11.67
2018-08-31T02:37:30.830Z,12.50
2018-08-31T02:40:11.384Z,10.60
2018-08-31T02:42:52.312Z,10.53
2018-08-31T02:45:33.895Z,10.53
2018-08-31T02:48:15.327Z,10.70
2018-08-31T02:50:55.946Z,12.00
2018-08-31T02:53:36.501Z,11.33
2018-08-31T02:56:18.025Z,10.20
2018-08-31T02:58:58.774Z,10.77
2018-08-31T03:01:39.319Z,11.53
2018-08-31T03:04:20.268Z,10.40
2018-08-31T03:07:02.407Z,10.60
2018-08-31T03:09:43.268Z,14.70
2018-08-31T03:12:24.040Z,20.63
2018-08-31T03:15:05.308Z,16.50
2018-08-31T03:17:45.898Z,19.47
2018-08-31T03:41:25.427Z,24.97
2018-08-31T03:44:06.222Z,27.07
2018-08-31T03:46:46.916Z,28.13
2018-08-31T03:49:27.685Z,28.17
2018-08-31T03:52:09.240Z,26.17
2018-08-31T03:54:50.364Z,21.80
2018-08-31T03:57:31.549Z,25.20
2018-08-31T04:00:13.233Z,23.70
2018-08-31T04:02:54.495Z,19.80
2018-08-31T04:05:35.018Z,22.07
2018-08-31T04:08:15.695Z,23.60
2018-08-31T04:10:57.098Z,24.50
2018-08-31T04:13:37.814Z,24.93
2018-08-31T04:16:19.168Z,23.90
2018-08-31T04:19:04.013Z,23.13
2018-08-31T04:21:45.066Z,20.73
2018-08-31T04:24:26.362Z,19.00
2018-08-31T04:27:07.851Z,16.50
2018-08-31T04:29:49.277Z,17.30
2018-08-31T04:32:30.231Z,18.60
2018-08-31T04:35:11.173Z,19.17
2018-08-31T04:37:52.498Z,17.07
2018-08-31T04:40:34.324Z,14.60
2018-08-31T04:43:15.834Z,13.83
2018-08-31T04:45:57.167Z,11.20
2018-08-31T04:48:38.685Z,11.77
2018-08-31T04:51:19.242Z,11.80
2018-08-31T04:54:00.023Z,12.53
2018-08-31T04:56:42.091Z,11.50
2018-08-31T04:59:22.906Z,12.97
2018-08-31T05:02:03.703Z,13.20
2018-08-31T05:04:44.314Z,12.97
2018-08-31T05:07:25.019Z,15.17
2018-08-31T05:10:06.467Z,17.47
2018-08-31T05:12:47.080Z,26.10
2018-08-31T05:15:27.618Z,16.87
2018-08-31T05:18:08.218Z,21.33
2018-08-31T05:20:48.803Z,24.30
2018-08-31T05:23:29.417Z,28.90
